This is the latest recevied weather packets stored in our database for station/object WD4IXD. If no packets are shown the sender has not sent any weather packets the latest 1 day(s).
| Time | Temp. | Humidity | Pressure | Rain* | Wind** | Luminosity | Snow |
|---|---|---|---|---|---|---|---|
| 1777997104 | 3.33° C | 94% | 1015.8 hPa | 0 mm | 1.34 m/s, 16° | 70 W/m² | - |
| 1777996814 | 3.33° C | 94% | 1015.7 hPa | 0.25 mm | 1.34 m/s, 345° | 109 W/m² | - |
| 1777996505 | 3.33° C | 94% | 1015.6 hPa | 0.25 mm | 0.89 m/s, 348° | 105 W/m² | - |
| 1777996215 | 3.33° C | 94% | 1015.7 hPa | 0.25 mm | 0.45 m/s, 351° | 84 W/m² | - |
| 1777995903 | 3.33° C | 94% | 1015.8 hPa | 0.25 mm | 1.34 m/s, 335° | 84 W/m² | - |
| 1777995604 | 2.78° C | 94% | 1015.7 hPa | 0.25 mm | 1.34 m/s, 323° | 95 W/m² | - |
| 1777995304 | 2.78° C | 94% | 1015.6 hPa | 0.25 mm | 1.79 m/s, 332° | 105 W/m² | - |
| 1777995004 | 2.78° C | 94% | 1015.8 hPa | 0.25 mm | 1.34 m/s, 330° | 77 W/m² | - |
| 1777994715 | 2.78° C | 94% | 1015.8 hPa | 0.25 mm | 1.34 m/s, 336° | 69 W/m² | - |
| 1777994404 | 2.78° C | 94% | 1015.9 hPa | 0.25 mm | 1.34 m/s, 319° | 60 W/m² | - |
| 1777994115 | 2.78° C | 94% | 1015.8 hPa | 0.25 mm | 1.79 m/s, 339° | 62 W/m² | - |
| 1777993804 | 2.78° C | 94% | 1015.8 hPa | 0.25 mm | 0.89 m/s, 335° | 67 W/m² | - |
| 1777993515 | 2.78° C | 94% | 1015.9 hPa | 0.25 mm | 0.89 m/s, 320° | 69 W/m² | - |
| 1777993203 | 2.78° C | 94% | 1015.9 hPa | 0 mm | 1.79 m/s, 325° | 72 W/m² | - |
| 1777992915 | 2.78° C | 94% | 1016 hPa | 0 mm | 0.89 m/s, 318° | 54 W/m² | - |
| 1777992604 | 2.78° C | 94% | 1016 hPa | 0.25 mm | 2.24 m/s, 321° | 51 W/m² | - |
| 1777992315 | 2.78° C | 94% | 1016 hPa | 0.25 mm | 1.34 m/s, 325° | 60 W/m² | - |
| 1777992003 | 2.78° C | 94% | 1016 hPa | 0.25 mm | 1.34 m/s, 343° | 54 W/m² | - |
| 1777991715 | 2.78° C | 94% | 1016.1 hPa | 0.25 mm | 1.79 m/s, 327° | 47 W/m² | - |
| 1777991404 | 2.78° C | 94% | 1016.1 hPa | 0.25 mm | 2.24 m/s, 335° | 51 W/m² | - |
| 1777991115 | 2.78° C | 94% | 1016 hPa | 0.25 mm | 2.24 m/s, 338° | 49 W/m² | - |
| 1777990804 | 2.78° C | 94% | 1016 hPa | 0.25 mm | 2.24 m/s, 345° | 42 W/m² | - |
| 1777990515 | 2.78° C | 94% | 1016 hPa | 0.25 mm | 1.79 m/s, 352° | 44 W/m² | - |
| 1777990204 | 2.78° C | 94% | 1016.1 hPa | 0.25 mm | 2.24 m/s, 329° | 40 W/m² | - |
| 1777989916 | 2.78° C | 94% | 1016.1 hPa | 0.25 mm | 1.79 m/s, 312° | 39 W/m² | - |
* Rain latest hour (hover to see other rain measurements)
** Current wind speed in m/s (hover to see current wind gust speed)